Time;durP1;ratioP1;P1;durP2;ratioP2;P2;SDS_P1;SDS_P2;PMS_P1;PMS_P2;Temp;Humidity;BMP_temperature;BMP_pressure;BME280_temperature;BME280_humidity;BME280_pressure;Samples;Min_cycle;Max_cycle;Signal;HPM_P1;HPM_P2
2021/06/13 00:00:37;;;;;;;10.70;3.08;;;;;;;;;;10269939;28;20075;-67
2021/06/13 00:05:34;;;;;;;13.88;2.90;;;;;;;;;;10273449;28;20511;-67
2021/06/13 00:10:31;;;;;;;13.63;3.22;;;;;;;;;;10264177;28;20128;-67
2021/06/13 00:15:27;;;;;;;13.02;2.78;;;;;;;;;;10274635;28;20064;-68
2021/06/13 00:20:25;;;;;;;14.98;3.25;;;;;;;;;;10274865;28;20120;-67
2021/06/13 00:25:22;;;;;;;12.85;3.22;;;;;;;;;;10274331;28;20044;-67
2021/06/13 00:30:18;;;;;;;11.73;3.08;;;;;;;;;;10272748;28;20499;-67
2021/06/13 00:35:15;;;;;;;11.10;2.97;;;;;;;;;;10267641;28;20079;-67
2021/06/13 00:40:13;;;;;;;10.60;2.92;;;;;;;;;;10281099;28;20512;-68
2021/06/13 00:45:09;;;;;;;16.77;3.10;;;;;;;;;;10265417;28;20076;-68
2021/06/13 00:50:09;;;;;;;14.52;3.10;;;;;;;;;;10273769;28;20650;-67
2021/06/13 00:55:06;;;;;;;17.52;3.92;;;;;;;;;;10260089;28;20067;-67
2021/06/13 01:00:04;;;;;;;11.85;3.65;;;;;;;;;;10275164;28;20051;-67
2021/06/13 01:05:00;;;;;;;9.90;2.55;;;;;;;;;;10268704;28;20044;-67
2021/06/13 01:10:03;;;;;;;11.00;2.95;;;;;;;;;;10270126;28;20140;-67
2021/06/13 01:15:11;;;;;;;12.63;3.22;;;;;;;;;;10270018;28;20127;-67
2021/06/13 01:20:08;;;;;;;14.85;2.75;;;;;;;;;;10273217;28;20323;-68
2021/06/13 01:25:16;;;;;;;16.38;3.22;;;;;;;;;;10271848;28;20429;-68
2021/06/13 01:30:12;;;;;;;12.73;2.80;;;;;;;;;;10268055;28;20053;-68
2021/06/13 01:35:10;;;;;;;8.27;2.83;;;;;;;;;;10263825;28;20127;-67
2021/06/13 01:40:08;;;;;;;11.18;2.50;;;;;;;;;;10267504;28;20102;-67
2021/06/13 01:45:08;;;;;;;11.55;2.78;;;;;;;;;;10263002;28;20094;-67
2021/06/13 01:50:05;;;;;;;8.80;2.58;;;;;;;;;;10275852;28;20049;-68
2021/06/13 01:55:03;;;;;;;11.90;3.83;;;;;;;;;;10259090;28;20124;-68
2021/06/13 02:00:01;;;;;;;12.52;2.92;;;;;;;;;;10276493;28;20486;-67
2021/06/13 02:04:57;;;;;;;12.25;2.97;;;;;;;;;;10262856;28;20140;-67
2021/06/13 02:09:53;;;;;;;12.38;2.92;;;;;;;;;;10264012;28;20127;-67
2021/06/13 02:14:50;;;;;;;12.20;3.00;;;;;;;;;;10263378;28;20578;-67
2021/06/13 02:19:47;;;;;;;9.18;2.58;;;;;;;;;;10276115;28;20077;-68
2021/06/13 02:24:43;;;;;;;12.63;3.35;;;;;;;;;;10267691;28;20395;-67
2021/06/13 02:29:41;;;;;;;12.15;2.90;;;;;;;;;;10261314;28;20061;-67
2021/06/13 02:34:37;;;;;;;10.75;3.58;;;;;;;;;;10258398;28;20132;-67
2021/06/13 02:39:33;;;;;;;17.17;3.22;;;;;;;;;;10266456;28;20041;-68
2021/06/13 02:44:34;;;;;;;15.60;3.85;;;;;;;;;;10258460;28;20051;-67
2021/06/13 02:49:31;;;;;;;12.45;3.42;;;;;;;;;;10268807;28;20041;-68
2021/06/13 02:54:28;;;;;;;14.00;3.75;;;;;;;;;;10269704;28;20045;-67
2021/06/13 02:59:34;;;;;;;11.45;3.30;;;;;;;;;;10272113;28;20139;-68
2021/06/13 03:04:31;;;;;;;9.65;2.95;;;;;;;;;;10256004;28;20037;-67
2021/06/13 03:09:28;;;;;;;12.98;3.42;;;;;;;;;;10251037;28;20167;-67
2021/06/13 03:14:27;;;;;;;15.07;2.65;;;;;;;;;;10265976;28;20405;-67
2021/06/13 03:19:24;;;;;;;11.10;3.35;;;;;;;;;;10274354;28;20063;-68
2021/06/13 03:24:22;;;;;;;10.52;3.05;;;;;;;;;;10273637;28;20065;-67
2021/06/13 03:29:18;;;;;;;11.70;3.38;;;;;;;;;;10270211;28;20127;-67
2021/06/13 03:34:15;;;;;;;18.50;3.90;;;;;;;;;;10279447;28;20131;-68
2021/06/13 03:39:12;;;;;;;12.45;3.60;;;;;;;;;;10274527;28;20099;-67
2021/06/13 03:44:09;;;;;;;9.75;2.85;;;;;;;;;;10266191;28;20049;-68
2021/06/13 03:49:07;;;;;;;18.00;4.40;;;;;;;;;;10275823;28;20151;-68
2021/06/13 03:54:04;;;;;;;13.50;2.90;;;;;;;;;;10267114;28;20199;-68
2021/06/13 03:59:03;;;;;;;13.68;3.10;;;;;;;;;;10272557;28;20060;-67
2021/06/13 04:04:00;;;;;;;16.33;3.00;;;;;;;;;;10259401;28;20102;-68
2021/06/13 04:08:57;;;;;;;17.70;3.35;;;;;;;;;;10272615;28;20570;-67
2021/06/13 04:13:54;;;;;;;14.65;3.80;;;;;;;;;;10270998;28;20466;-67
2021/06/13 04:18:50;;;;;;;15.20;4.20;;;;;;;;;;10269132;28;20049;-68
2021/06/13 04:23:47;;;;;;;16.70;3.58;;;;;;;;;;10266285;28;20102;-67
2021/06/13 04:28:44;;;;;;;13.63;3.25;;;;;;;;;;10275915;28;20135;-68
2021/06/13 04:33:41;;;;;;;21.13;3.90;;;;;;;;;;10276366;28;20042;-68
2021/06/13 04:38:38;;;;;;;16.55;3.95;;;;;;;;;;10267118;28;20131;-68
2021/06/13 04:43:35;;;;;;;14.88;3.92;;;;;;;;;;10270617;28;20045;-67
2021/06/13 04:48:32;;;;;;;9.07;2.75;;;;;;;;;;10262891;28;20045;-68
2021/06/13 04:53:47;;;;;;;16.98;6.43;;;;;;;;;;10276099;28;20072;-68
2021/06/13 04:58:44;;;;;;;11.82;2.97;;;;;;;;;;10268332;28;20033;-68
2021/06/13 05:03:41;;;;;;;12.25;3.50;;;;;;;;;;10261688;28;20041;-68
2021/06/13 05:08:41;;;;;;;16.83;4.53;;;;;;;;;;10270703;28;20059;-68
2021/06/13 05:13:37;;;;;;;13.40;3.33;;;;;;;;;;10264771;28;20049;-67
2021/06/13 05:18:34;;;;;;;17.42;4.20;;;;;;;;;;10274740;28;20037;-68
2021/06/13 05:23:30;;;;;;;13.73;3.58;;;;;;;;;;10263124;28;20466;-67
2021/06/13 05:28:27;;;;;;;18.13;4.15;;;;;;;;;;10270180;28;20049;-68
2021/06/13 05:33:24;;;;;;;14.18;3.97;;;;;;;;;;10271104;28;20123;-68
2021/06/13 05:38:21;;;;;;;15.93;4.90;;;;;;;;;;10265245;28;20057;-68
2021/06/13 05:43:17;;;;;;;16.75;4.20;;;;;;;;;;10267716;28;20560;-67
2021/06/13 05:48:13;;;;;;;14.30;4.28;;;;;;;;;;10263433;28;20714;-68
2021/06/13 05:53:10;;;;;;;18.70;4.28;;;;;;;;;;10271639;28;20140;-68
2021/06/13 05:58:06;;;;;;;14.82;4.32;;;;;;;;;;10266014;28;20037;-68
2021/06/13 06:03:03;;;;;;;13.88;4.22;;;;;;;;;;10272079;28;20131;-67
2021/06/13 06:08:00;;;;;;;17.30;4.35;;;;;;;;;;10269011;28;20110;-68
2021/06/13 06:12:57;;;;;;;17.25;4.78;;;;;;;;;;10274285;28;20049;-67
2021/06/13 06:17:54;;;;;;;19.88;5.68;;;;;;;;;;10276791;28;20049;-67
2021/06/13 06:22:51;;;;;;;13.90;4.28;;;;;;;;;;10266653;28;20048;-68
2021/06/13 06:27:48;;;;;;;14.25;4.38;;;;;;;;;;10264186;28;20045;-68
2021/06/13 06:32:45;;;;;;;15.05;4.25;;;;;;;;;;10256752;28;20120;-68
2021/06/13 06:37:42;;;;;;;13.45;4.32;;;;;;;;;;10261108;28;20036;-68
2021/06/13 06:42:39;;;;;;;17.15;4.95;;;;;;;;;;10277638;28;20064;-67
2021/06/13 06:47:35;;;;;;;12.95;3.92;;;;;;;;;;10253460;28;20081;-68
2021/06/13 06:52:34;;;;;;;16.45;4.50;;;;;;;;;;10270505;28;20043;-68
2021/06/13 06:57:31;;;;;;;11.85;3.63;;;;;;;;;;10255823;28;20036;-68
2021/06/13 07:02:27;;;;;;;14.02;4.10;;;;;;;;;;10264255;28;20073;-67
2021/06/13 07:07:24;;;;;;;10.75;4.07;;;;;;;;;;10258748;28;20449;-68
2021/06/13 07:12:20;;;;;;;15.02;3.40;;;;;;;;;;10266592;28;20524;-67
2021/06/13 07:17:17;;;;;;;11.88;3.90;;;;;;;;;;10268499;28;20036;-68
2021/06/13 07:22:13;;;;;;;18.27;4.40;;;;;;;;;;10262799;28;20479;-68
2021/06/13 07:27:09;;;;;;;11.27;3.88;;;;;;;;;;10269600;28;20778;-68
2021/06/13 07:32:06;;;;;;;12.80;3.60;;;;;;;;;;10266645;28;20064;-67
2021/06/13 07:37:04;;;;;;;15.15;4.25;;;;;;;;;;10259001;28;20131;-67
2021/06/13 07:42:02;;;;;;;11.68;3.75;;;;;;;;;;10256508;28;20655;-67
2021/06/13 07:46:58;;;;;;;12.68;3.75;;;;;;;;;;10264065;28;20106;-67
2021/06/13 07:51:55;;;;;;;8.63;3.45;;;;;;;;;;10264166;28;20416;-67
2021/06/13 07:56:51;;;;;;;11.18;3.72;;;;;;;;;;10262231;28;20076;-68
2021/06/13 08:01:48;;;;;;;10.73;3.45;;;;;;;;;;10271241;28;20045;-67
2021/06/13 08:06:44;;;;;;;13.98;3.85;;;;;;;;;;10258640;28;20069;-68
2021/06/13 08:11:42;;;;;;;10.73;4.10;;;;;;;;;;10269185;28;20140;-68
2021/06/13 08:16:38;;;;;;;11.07;4.00;;;;;;;;;;10271444;28;20507;-67
2021/06/13 08:21:35;;;;;;;10.30;3.80;;;;;;;;;;10277607;28;20059;-68
2021/06/13 08:26:32;;;;;;;12.75;3.65;;;;;;;;;;10265159;28;20462;-68
2021/06/13 08:31:29;;;;;;;13.70;4.75;;;;;;;;;;10267140;28;20563;-67
2021/06/13 08:36:25;;;;;;;17.10;4.32;;;;;;;;;;10271709;28;20069;-67
2021/06/13 08:41:23;;;;;;;12.90;4.28;;;;;;;;;;10270240;28;20132;-68
2021/06/13 08:46:22;;;;;;;15.43;3.80;;;;;;;;;;10271176;28;20583;-68
2021/06/13 08:51:19;;;;;;;11.30;4.00;;;;;;;;;;10277715;28;20047;-68
2021/06/13 08:56:16;;;;;;;14.23;4.13;;;;;;;;;;10274086;28;20128;-68
2021/06/13 09:01:13;;;;;;;13.60;4.45;;;;;;;;;;10268980;28;20057;-68
2021/06/13 09:06:11;;;;;;;12.88;4.60;;;;;;;;;;10266877;28;20041;-68
2021/06/13 09:11:09;;;;;;;17.05;4.63;;;;;;;;;;10269939;28;20446;-68
2021/06/13 09:16:06;;;;;;;14.90;4.97;;;;;;;;;;10265567;28;20079;-68
2021/06/13 09:21:04;;;;;;;15.07;5.72;;;;;;;;;;10271701;28;20045;-68
2021/06/13 09:26:07;;;;;;;18.42;4.57;;;;;;;;;;10256229;28;20045;-68
2021/06/13 09:31:05;;;;;;;19.10;4.88;;;;;;;;;;10281292;28;20147;-68
2021/06/13 09:36:03;;;;;;;21.55;4.50;;;;;;;;;;10251601;28;20552;-68
2021/06/13 09:41:10;;;;;;;17.02;5.53;;;;;;;;;;10264594;28;20128;-68
2021/06/13 09:46:14;;;;;;;17.17;5.10;;;;;;;;;;10268115;28;20045;-68
2021/06/13 09:51:14;;;;;;;18.50;6.45;;;;;;;;;;10271350;28;20135;-68
2021/06/13 09:56:23;;;;;;;12.02;5.20;;;;;;;;;;10266578;28;20094;-68
2021/06/13 10:01:21;;;;;;;18.25;5.78;;;;;;;;;;10268739;28;20069;-68
2021/06/13 10:06:19;;;;;;;11.57;4.32;;;;;;;;;;10266025;28;20037;-67
2021/06/13 10:11:16;;;;;;;13.80;4.13;;;;;;;;;;10267275;28;20559;-67
2021/06/13 10:16:23;;;;;;;12.15;4.43;;;;;;;;;;10280339;28;20128;-67
2021/06/13 10:21:20;;;;;;;14.77;4.85;;;;;;;;;;10262509;28;20037;-67
2021/06/13 10:26:17;;;;;;;18.08;5.78;;;;;;;;;;10243022;28;20037;-68
2021/06/13 10:31:14;;;;;;;16.15;5.10;;;;;;;;;;10239560;28;20554;-72
2021/06/13 10:36:10;;;;;;;15.18;5.10;;;;;;;;;;10238153;28;20107;-67
2021/06/13 10:41:06;;;;;;;17.02;5.63;;;;;;;;;;10245455;28;20078;-68
2021/06/13 10:46:17;;;;;;;13.10;4.60;;;;;;;;;;10252529;28;20155;-68
2021/06/13 10:51:43;;;;;;;12.25;4.95;;;;;;;;;;10256532;28;20498;-69
2021/06/13 10:56:40;;;;;;;14.57;4.57;;;;;;;;;;10247244;28;20072;-68
2021/06/13 11:01:38;;;;;;;13.32;4.30;;;;;;;;;;10276847;28;20105;-69
2021/06/13 11:06:39;;;;;;;12.15;4.47;;;;;;;;;;10273502;28;20644;-69
2021/06/13 11:11:37;;;;;;;14.98;4.50;;;;;;;;;;10247726;28;20156;-67
2021/06/13 11:16:37;;;;;;;11.32;4.47;;;;;;;;;;10238049;28;20152;-67
2021/06/13 11:21:34;;;;;;;10.80;4.57;;;;;;;;;;10246805;28;20059;-65
2021/06/13 11:26:32;;;;;;;16.65;5.32;;;;;;;;;;10250918;28;20045;-67
2021/06/13 11:31:28;;;;;;;13.48;5.47;;;;;;;;;;10238544;28;20049;-67
2021/06/13 11:36:27;;;;;;;12.48;4.43;;;;;;;;;;10253521;28;20040;-69
2021/06/13 11:41:31;;;;;;;14.05;4.43;;;;;;;;;;10253336;28;20052;-67
2021/06/13 11:46:31;;;;;;;11.88;4.18;;;;;;;;;;10253406;28;20040;-66
2021/06/13 11:51:28;;;;;;;13.73;3.60;;;;;;;;;;10255480;28;20087;-68
2021/06/13 11:56:34;;;;;;;12.07;4.05;;;;;;;;;;10280819;28;20133;-67
2021/06/13 12:01:33;;;;;;;10.18;4.00;;;;;;;;;;10281344;28;20056;-66
2021/06/13 12:06:30;;;;;;;12.32;4.47;;;;;;;;;;10275490;28;20052;-67
2021/06/13 12:11:28;;;;;;;13.75;4.40;;;;;;;;;;10258711;28;20064;-68
2021/06/13 12:16:27;;;;;;;14.93;4.50;;;;;;;;;;10256416;28;20786;-68
2021/06/13 12:21:29;;;;;;;10.88;4.18;;;;;;;;;;10272139;28;20039;-68
2021/06/13 12:31:45;;;;;;;11.90;3.20;;;;;;;;;;10272720;28;20128;-67
2021/06/13 12:36:49;;;;;;;11.73;3.90;;;;;;;;;;10264447;28;20037;-67
2021/06/13 12:41:45;;;;;;;12.90;3.50;;;;;;;;;;10256706;28;20060;-66
2021/06/13 12:46:42;;;;;;;11.68;4.18;;;;;;;;;;10260285;28;20042;-65
2021/06/13 12:51:41;;;;;;;9.65;3.28;;;;;;;;;;10252437;28;20151;-66
2021/06/13 12:56:39;;;;;;;11.13;3.70;;;;;;;;;;10255358;28;20140;-68
2021/06/13 13:01:40;;;;;;;11.38;3.97;;;;;;;;;;10266888;28;20059;-69
2021/06/13 13:06:48;;;;;;;10.45;3.97;;;;;;;;;;10254787;28;20041;-69
2021/06/13 13:11:51;;;;;;;11.68;4.05;;;;;;;;;;10260643;28;20069;-69
2021/06/13 13:16:47;;;;;;;10.20;3.85;;;;;;;;;;10260923;28;20672;-68
2021/06/13 13:21:44;;;;;;;10.43;3.20;;;;;;;;;;10273966;28;20044;-67
2021/06/13 13:27:00;;;;;;;11.65;4.10;;;;;;;;;;10267668;28;20538;-69
2021/06/13 13:32:00;;;;;;;8.73;3.25;;;;;;;;;;10270947;28;20244;-67
2021/06/13 13:37:14;;;;;;;9.10;3.40;;;;;;;;;;10255203;28;20037;-68
2021/06/13 13:42:13;;;;;;;8.32;3.50;;;;;;;;;;10247391;28;20498;-67
2021/06/13 13:47:12;;;;;;;10.63;4.00;;;;;;;;;;10259744;28;20498;-66
2021/06/13 13:52:22;;;;;;;7.65;3.35;;;;;;;;;;10256665;28;20861;-71
2021/06/13 13:57:18;;;;;;;10.20;3.47;;;;;;;;;;10256378;28;20034;-67
2021/06/13 14:02:16;;;;;;;11.07;3.13;;;;;;;;;;10256930;28;20127;-67
2021/06/13 14:07:12;;;;;;;11.98;3.65;;;;;;;;;;10263038;28;20137;-68
2021/06/13 14:12:09;;;;;;;7.97;2.95;;;;;;;;;;10249398;28;20049;-66
2021/06/13 14:17:05;;;;;;;12.48;3.83;;;;;;;;;;10250306;28;20036;-65
2021/06/13 14:22:04;;;;;;;8.75;4.00;;;;;;;;;;10263166;28;20045;-65
2021/06/13 14:27:00;;;;;;;12.45;3.90;;;;;;;;;;10250702;28;20045;-67
2021/06/13 14:31:56;;;;;;;9.23;3.47;;;;;;;;;;10256447;28;20147;-66
2021/06/13 14:36:53;;;;;;;12.80;4.05;;;;;;;;;;10253783;28;20414;-67
2021/06/13 14:41:49;;;;;;;10.52;3.42;;;;;;;;;;10271758;28;20036;-67
2021/06/13 14:46:45;;;;;;;10.95;3.97;;;;;;;;;;10270602;28;20517;-67
2021/06/13 14:51:42;;;;;;;8.48;3.70;;;;;;;;;;10257855;28;20043;-67
2021/06/13 14:56:38;;;;;;;12.88;4.05;;;;;;;;;;10258515;28;20064;-67
2021/06/13 15:01:35;;;;;;;7.55;2.80;;;;;;;;;;10256243;28;20050;-69
2021/06/13 15:06:32;;;;;;;10.95;3.65;;;;;;;;;;10259550;28;20156;-66
2021/06/13 15:11:30;;;;;;;9.48;3.47;;;;;;;;;;10262655;28;20079;-67
2021/06/13 15:16:27;;;;;;;10.55;3.55;;;;;;;;;;10254276;28;20040;-67
2021/06/13 15:21:24;;;;;;;7.68;3.03;;;;;;;;;;10249425;28;20096;-67
2021/06/13 15:26:20;;;;;;;8.73;3.45;;;;;;;;;;10249142;28;20041;-66
2021/06/13 15:31:16;;;;;;;7.88;3.03;;;;;;;;;;10246616;28;20530;-65
2021/06/13 15:36:13;;;;;;;7.43;2.83;;;;;;;;;;10248698;28;20048;-67
2021/06/13 15:41:09;;;;;;;9.23;3.45;;;;;;;;;;10254278;28;20459;-68
2021/06/13 15:46:07;;;;;;;6.72;2.47;;;;;;;;;;10249361;28;20079;-68
2021/06/13 15:51:04;;;;;;;10.30;2.80;;;;;;;;;;10250152;28;20044;-67
2021/06/13 15:56:01;;;;;;;9.55;3.55;;;;;;;;;;10257379;28;20077;-65
2021/06/13 16:01:13;;;;;;;9.30;3.35;;;;;;;;;;10259355;28;20046;-65
2021/06/13 16:06:09;;;;;;;9.55;4.38;;;;;;;;;;10239395;28;20496;-67
2021/06/13 16:11:06;;;;;;;11.98;5.50;;;;;;;;;;10244550;28;20144;-66
2021/06/13 16:16:02;;;;;;;9.70;4.75;;;;;;;;;;10247659;28;20146;-66
2021/06/13 16:20:59;;;;;;;9.15;3.30;;;;;;;;;;10248519;28;20120;-67
2021/06/13 16:25:55;;;;;;;10.35;3.83;;;;;;;;;;10252254;28;20069;-67
2021/06/13 16:30:54;;;;;;;7.35;2.88;;;;;;;;;;10255367;28;20045;-67
2021/06/13 16:35:51;;;;;;;7.32;2.17;;;;;;;;;;10265458;28;20148;-67
2021/06/13 16:40:52;;;;;;;10.50;2.40;;;;;;;;;;10268227;28;20084;-67
2021/06/13 16:45:49;;;;;;;9.35;2.65;;;;;;;;;;10257898;28;20100;-67
2021/06/13 16:50:46;;;;;;;5.93;2.38;;;;;;;;;;10251047;28;20045;-67
2021/06/13 16:55:42;;;;;;;5.78;2.65;;;;;;;;;;10247657;28;20521;-65
2021/06/13 17:00:38;;;;;;;6.93;3.30;;;;;;;;;;10245596;28;20128;-68
2021/06/13 17:05:35;;;;;;;12.57;4.45;;;;;;;;;;10248042;28;20132;-67
2021/06/13 17:10:32;;;;;;;11.43;6.50;;;;;;;;;;10254380;28;20060;-68
2021/06/13 17:15:28;;;;;;;7.10;2.97;;;;;;;;;;10257231;28;20056;-65
2021/06/13 17:20:24;;;;;;;7.32;2.80;;;;;;;;;;10266836;28;20150;-65
2021/06/13 17:25:34;;;;;;;6.55;2.10;;;;;;;;;;10267845;28;20528;-66
2021/06/13 17:30:31;;;;;;;9.13;3.08;;;;;;;;;;10254111;28;20043;-66
2021/06/13 17:35:27;;;;;;;9.07;2.58;;;;;;;;;;10259565;28;20422;-66
2021/06/13 17:40:23;;;;;;;9.30;2.92;;;;;;;;;;10247971;28;20084;-66
2021/06/13 17:45:20;;;;;;;7.60;3.55;;;;;;;;;;10258335;28;20076;-66
2021/06/13 17:50:16;;;;;;;8.70;3.22;;;;;;;;;;10273113;28;20083;-64
2021/06/13 17:55:13;;;;;;;6.75;2.20;;;;;;;;;;10244278;28;20053;-66
2021/06/13 18:00:09;;;;;;;5.28;2.30;;;;;;;;;;10258155;28;20467;-64
2021/06/13 18:05:06;;;;;;;6.53;2.17;;;;;;;;;;10258137;28;20098;-65
2021/06/13 18:10:03;;;;;;;5.95;2.40;;;;;;;;;;10243181;28;20114;-65
2021/06/13 18:14:59;;;;;;;11.45;6.65;;;;;;;;;;10253608;28;20124;-66
2021/06/13 18:19:56;;;;;;;11.93;4.20;;;;;;;;;;10251249;28;20037;-64
2021/06/13 18:24:52;;;;;;;8.07;2.97;;;;;;;;;;10254652;28;20585;-65
2021/06/13 18:29:49;;;;;;;7.93;2.72;;;;;;;;;;10245176;28;20077;-66
2021/06/13 18:34:45;;;;;;;8.07;2.33;;;;;;;;;;10244066;28;20061;-66
2021/06/13 18:39:42;;;;;;;7.72;2.15;;;;;;;;;;10241695;28;20037;-67
2021/06/13 18:44:38;;;;;;;7.25;2.60;;;;;;;;;;10255615;28;20470;-67
2021/06/13 18:49:37;;;;;;;7.80;2.80;;;;;;;;;;10258328;28;20041;-65
2021/06/13 18:54:33;;;;;;;8.23;2.50;;;;;;;;;;10253441;28;20132;-66
2021/06/13 18:59:30;;;;;;;10.02;2.20;;;;;;;;;;10254381;28;20456;-65
2021/06/13 19:04:26;;;;;;;9.05;2.47;;;;;;;;;;10265393;28;20151;-66
2021/06/13 19:09:23;;;;;;;7.93;2.28;;;;;;;;;;10276252;28;20488;-68
2021/06/13 19:14:20;;;;;;;8.55;3.40;;;;;;;;;;10271090;28;20066;-65
2021/06/13 19:19:17;;;;;;;6.13;2.33;;;;;;;;;;10267433;28;20072;-67
2021/06/13 19:24:14;;;;;;;10.50;2.72;;;;;;;;;;10268852;28;20045;-66
2021/06/13 19:29:10;;;;;;;5.47;1.63;;;;;;;;;;10270954;28;20135;-66
2021/06/13 19:34:07;;;;;;;8.02;2.13;;;;;;;;;;10266015;28;20163;-66
2021/06/13 19:39:03;;;;;;;7.28;3.22;;;;;;;;;;10273079;28;20045;-66
2021/06/13 19:44:00;;;;;;;7.68;2.28;;;;;;;;;;10261729;28;20072;-69
2021/06/13 19:48:56;;;;;;;8.90;2.47;;;;;;;;;;10237983;28;20049;-66
2021/06/13 19:54:10;;;;;;;7.10;2.08;;;;;;;;;;10256296;28;20044;-67
2021/06/13 19:59:07;;;;;;;5.70;2.05;;;;;;;;;;10246005;28;20722;-71
2021/06/13 20:04:03;;;;;;;6.88;2.25;;;;;;;;;;10251132;28;20040;-73
2021/06/13 20:09:01;;;;;;;10.20;2.63;;;;;;;;;;10256172;28;20496;-68
2021/06/13 20:13:58;;;;;;;8.25;2.63;;;;;;;;;;10260162;28;20140;-69
2021/06/13 20:18:55;;;;;;;7.55;3.10;;;;;;;;;;10261602;28;20507;-68
2021/06/13 20:23:51;;;;;;;7.07;2.33;;;;;;;;;;10266964;28;20606;-72
2021/06/13 20:28:48;;;;;;;9.30;3.30;;;;;;;;;;10284091;28;20459;-72
2021/06/13 20:33:44;;;;;;;9.30;2.40;;;;;;;;;;10267735;28;20503;-73
2021/06/13 20:38:41;;;;;;;7.82;2.30;;;;;;;;;;10255149;28;20403;-73
2021/06/13 20:43:37;;;;;;;7.38;2.47;;;;;;;;;;10243557;28;20072;-73
2021/06/13 20:48:33;;;;;;;9.05;2.97;;;;;;;;;;10250550;28;20668;-72
2021/06/13 20:53:32;;;;;;;8.73;3.22;;;;;;;;;;10249881;28;20520;-72
2021/06/13 20:58:28;;;;;;;8.63;3.03;;;;;;;;;;10265656;28;20040;-72
2021/06/13 21:03:25;;;;;;;7.88;3.10;;;;;;;;;;10251544;28;20041;-70
2021/06/13 21:08:21;;;;;;;8.40;3.28;;;;;;;;;;10284013;28;20041;-71
2021/06/13 21:13:19;;;;;;;9.55;4.32;;;;;;;;;;10275404;28;20037;-71
2021/06/13 21:18:16;;;;;;;10.75;4.32;;;;;;;;;;10282157;28;20131;-71
2021/06/13 21:23:14;;;;;;;9.50;2.80;;;;;;;;;;10262231;28;20053;-72
2021/06/13 21:28:14;;;;;;;10.25;3.08;;;;;;;;;;10267609;28;20063;-72
2021/06/13 21:33:11;;;;;;;8.50;2.88;;;;;;;;;;10280696;28;20069;-67
2021/06/13 21:38:07;;;;;;;6.88;2.40;;;;;;;;;;10266575;28;20066;-69
2021/06/13 21:43:04;;;;;;;7.47;3.03;;;;;;;;;;10278320;28;20099;-68
2021/06/13 21:48:00;;;;;;;7.40;2.33;;;;;;;;;;10277101;28;20131;-68
2021/06/13 21:52:58;;;;;;;9.25;3.20;;;;;;;;;;10285971;28;20422;-67
2021/06/13 21:57:54;;;;;;;6.35;2.47;;;;;;;;;;10276889;28;20147;-67
2021/06/13 22:02:51;;;;;;;8.23;3.03;;;;;;;;;;10271459;28;20507;-68
2021/06/13 22:07:49;;;;;;;8.93;2.78;;;;;;;;;;10277477;28;20071;-68
2021/06/13 22:12:52;;;;;;;10.50;2.92;;;;;;;;;;10275262;28;20064;-67
2021/06/13 22:17:48;;;;;;;9.32;2.42;;;;;;;;;;10267733;28;20135;-67
2021/06/13 22:22:46;;;;;;;8.15;3.47;;;;;;;;;;10279820;28;20075;-68
2021/06/13 22:27:42;;;;;;;10.45;3.15;;;;;;;;;;10273880;28;20045;-69
2021/06/13 22:32:39;;;;;;;6.95;2.92;;;;;;;;;;10279479;28;20503;-70
2021/06/13 22:37:38;;;;;;;10.35;3.45;;;;;;;;;;10285688;28;20444;-69
2021/06/13 22:42:34;;;;;;;8.98;3.08;;;;;;;;;;10287692;28;20387;-70
2021/06/13 22:47:30;;;;;;;9.10;3.10;;;;;;;;;;10275719;28;20557;-70
2021/06/13 22:52:27;;;;;;;8.23;3.58;;;;;;;;;;10274653;28;20063;-70
2021/06/13 22:57:23;;;;;;;10.25;4.50;;;;;;;;;;10282157;28;20094;-72
2021/06/13 23:02:20;;;;;;;8.75;4.03;;;;;;;;;;10264767;28;20049;-72
2021/06/13 23:07:16;;;;;;;9.18;3.40;;;;;;;;;;10268533;28;20498;-70
2021/06/13 23:12:12;;;;;;;8.75;3.13;;;;;;;;;;10268371;28;20132;-70
2021/06/13 23:17:09;;;;;;;11.38;3.50;;;;;;;;;;10282123;28;20040;-71
2021/06/13 23:22:05;;;;;;;8.63;3.65;;;;;;;;;;10277291;28;20087;-71
2021/06/13 23:27:01;;;;;;;11.60;3.53;;;;;;;;;;10275397;28;20140;-72
2021/06/13 23:31:58;;;;;;;9.93;3.95;;;;;;;;;;10274782;28;20077;-75
2021/06/13 23:36:54;;;;;;;6.57;3.40;;;;;;;;;;10283089;28;20057;-75
2021/06/13 23:41:50;;;;;;;16.05;4.15;;;;;;;;;;10281858;28;20076;-74
2021/06/13 23:46:47;;;;;;;8.93;4.03;;;;;;;;;;10290460;28;20071;-70
2021/06/13 23:51:43;;;;;;;9.38;4.35;;;;;;;;;;10286280;28;20049;-70
2021/06/13 23:56:39;;;;;;;12.52;4.25;;;;;;;;;;10277049;28;20045;-72
